sensor_id;sensor_type;location;lat;lon;timestamp;temperature;humidity
7411;DHT22;3747;48.628;9.058;2022-07-21T00:00:48;16.90;99.90
7411;DHT22;3747;48.628;9.058;2022-07-21T00:03:15;16.70;99.90
7411;DHT22;3747;48.628;9.058;2022-07-21T00:05:41;16.60;99.90
7411;DHT22;3747;48.628;9.058;2022-07-21T00:08:08;16.50;99.90
7411;DHT22;3747;48.628;9.058;2022-07-21T00:10:35;16.40;99.90
7411;DHT22;3747;48.628;9.058;2022-07-21T00:13:03;16.40;99.90
7411;DHT22;3747;48.628;9.058;2022-07-21T00:15:30;16.50;99.90
7411;DHT22;3747;48.628;9.058;2022-07-21T00:17:57;16.60;99.90
7411;DHT22;3747;48.628;9.058;2022-07-21T00:20:24;16.70;99.90
7411;DHT22;3747;48.628;9.058;2022-07-21T00:22:53;16.80;99.90
7411;DHT22;3747;48.628;9.058;2022-07-21T00:25:19;16.80;99.90
7411;DHT22;3747;48.628;9.058;2022-07-21T00:27:46;16.80;99.90
7411;DHT22;3747;48.628;9.058;2022-07-21T00:30:15;16.70;99.90
7411;DHT22;3747;48.628;9.058;2022-07-21T00:32:42;16.80;99.90
7411;DHT22;3747;48.628;9.058;2022-07-21T00:35:10;16.70;99.90
7411;DHT22;3747;48.628;9.058;2022-07-21T00:37:37;16.80;99.90
7411;DHT22;3747;48.628;9.058;2022-07-21T00:40:06;16.70;99.90
7411;DHT22;3747;48.628;9.058;2022-07-21T00:42:33;16.70;99.90
7411;DHT22;3747;48.628;9.058;2022-07-21T00:45:01;16.80;99.90
7411;DHT22;3747;48.628;9.058;2022-07-21T00:47:31;16.80;99.90
7411;DHT22;3747;48.628;9.058;2022-07-21T00:49:59;16.90;99.90
7411;DHT22;3747;48.628;9.058;2022-07-21T00:52:25;16.90;99.90
7411;DHT22;3747;48.628;9.058;2022-07-21T00:54:52;16.90;99.90
7411;DHT22;3747;48.628;9.058;2022-07-21T00:57:19;16.90;99.90
7411;DHT22;3747;48.628;9.058;2022-07-21T00:59:46;16.90;99.90
7411;DHT22;3747;48.628;9.058;2022-07-21T01:02:13;17.00;99.90
7411;DHT22;3747;48.628;9.058;2022-07-21T01:04:42;17.00;99.90
7411;DHT22;3747;48.628;9.058;2022-07-21T01:07:08;17.00;99.90
7411;DHT22;3747;48.628;9.058;2022-07-21T01:09:36;17.00;99.90
7411;DHT22;3747;48.628;9.058;2022-07-21T01:12:03;17.00;99.90
7411;DHT22;3747;48.628;9.058;2022-07-21T01:14:31;16.90;99.90
7411;DHT22;3747;48.628;9.058;2022-07-21T01:16:58;16.90;99.90
7411;DHT22;3747;48.628;9.058;2022-07-21T01:19:24;17.00;99.90
7411;DHT22;3747;48.628;9.058;2022-07-21T01:21:53;17.00;99.90
7411;DHT22;3747;48.628;9.058;2022-07-21T01:24:19;16.90;99.90
7411;DHT22;3747;48.628;9.058;2022-07-21T01:26:48;17.00;99.90
7411;DHT22;3747;48.628;9.058;2022-07-21T01:29:15;16.90;99.90
7411;DHT22;3747;48.628;9.058;2022-07-21T01:31:43;16.90;99.90
7411;DHT22;3747;48.628;9.058;2022-07-21T01:34:11;16.90;99.90
7411;DHT22;3747;48.628;9.058;2022-07-21T01:36:38;17.00;99.90
7411;DHT22;3747;48.628;9.058;2022-07-21T01:39:06;17.00;99.90
7411;DHT22;3747;48.628;9.058;2022-07-21T01:41:51;17.00;99.90
7411;DHT22;3747;48.628;9.058;2022-07-21T01:44:18;17.00;99.90
7411;DHT22;3747;48.628;9.058;2022-07-21T01:46:47;17.10;99.90
7411;DHT22;3747;48.628;9.058;2022-07-21T01:49:15;17.10;99.90
7411;DHT22;3747;48.628;9.058;2022-07-21T01:51:42;17.20;99.90
7411;DHT22;3747;48.628;9.058;2022-07-21T01:54:11;17.20;99.90
7411;DHT22;3747;48.628;9.058;2022-07-21T01:56:39;17.20;99.90
7411;DHT22;3747;48.628;9.058;2022-07-21T01:59:06;17.20;99.90
7411;DHT22;3747;48.628;9.058;2022-07-21T02:01:34;17.10;99.90
7411;DHT22;3747;48.628;9.058;2022-07-21T02:04:04;17.10;99.90
7411;DHT22;3747;48.628;9.058;2022-07-21T02:06:31;17.00;99.90
7411;DHT22;3747;48.628;9.058;2022-07-21T02:08:58;17.00;99.90
7411;DHT22;3747;48.628;9.058;2022-07-21T02:11:26;17.00;99.90
7411;DHT22;3747;48.628;9.058;2022-07-21T02:13:54;17.10;99.90
7411;DHT22;3747;48.628;9.058;2022-07-21T02:16:20;17.10;99.90
7411;DHT22;3747;48.628;9.058;2022-07-21T02:18:47;17.00;99.90
7411;DHT22;3747;48.628;9.058;2022-07-21T02:21:14;17.10;99.90
7411;DHT22;3747;48.628;9.058;2022-07-21T02:23:40;17.10;99.90
7411;DHT22;3747;48.628;9.058;2022-07-21T02:26:07;17.10;99.90
7411;DHT22;3747;48.628;9.058;2022-07-21T02:28:35;17.10;99.90
7411;DHT22;3747;48.628;9.058;2022-07-21T02:31:02;17.10;99.90
7411;DHT22;3747;48.628;9.058;2022-07-21T02:33:29;17.10;99.90
7411;DHT22;3747;48.628;9.058;2022-07-21T02:35:56;17.00;99.90
7411;DHT22;3747;48.628;9.058;2022-07-21T02:38:22;17.00;99.90
7411;DHT22;3747;48.628;9.058;2022-07-21T02:40:49;17.00;99.90
7411;DHT22;3747;48.628;9.058;2022-07-21T02:43:16;17.00;99.90
7411;DHT22;3747;48.628;9.058;2022-07-21T02:45:44;16.90;99.90
7411;DHT22;3747;48.628;9.058;2022-07-21T02:48:12;16.90;99.90
7411;DHT22;3747;48.628;9.058;2022-07-21T02:50:43;16.90;99.90
7411;DHT22;3747;48.628;9.058;2022-07-21T02:53:12;16.90;99.90
7411;DHT22;3747;48.628;9.058;2022-07-21T02:55:39;17.00;99.90
7411;DHT22;3747;48.628;9.058;2022-07-21T02:58:08;17.00;99.90
7411;DHT22;3747;48.628;9.058;2022-07-21T03:00:37;17.00;99.90
7411;DHT22;3747;48.628;9.058;2022-07-21T03:03:05;17.00;99.90
7411;DHT22;3747;48.628;9.058;2022-07-21T03:05:33;16.90;99.90
7411;DHT22;3747;48.628;9.058;2022-07-21T03:08:00;16.90;99.90
7411;DHT22;3747;48.628;9.058;2022-07-21T03:10:26;16.90;99.90
7411;DHT22;3747;48.628;9.058;2022-07-21T03:12:53;16.90;99.90
7411;DHT22;3747;48.628;9.058;2022-07-21T03:15:20;16.90;99.90
7411;DHT22;3747;48.628;9.058;2022-07-21T03:17:47;16.90;99.90
7411;DHT22;3747;48.628;9.058;2022-07-21T03:20:15;17.00;99.90
7411;DHT22;3747;48.628;9.058;2022-07-21T03:22:41;17.00;99.90
7411;DHT22;3747;48.628;9.058;2022-07-21T03:25:08;16.90;99.90
7411;DHT22;3747;48.628;9.058;2022-07-21T03:27:35;16.90;99.90
7411;DHT22;3747;48.628;9.058;2022-07-21T03:30:05;16.90;99.90
7411;DHT22;3747;48.628;9.058;2022-07-21T03:32:32;16.80;99.90
7411;DHT22;3747;48.628;9.058;2022-07-21T03:34:59;16.80;99.90
7411;DHT22;3747;48.628;9.058;2022-07-21T03:37:27;16.80;99.90
7411;DHT22;3747;48.628;9.058;2022-07-21T03:39:54;16.80;99.90
7411;DHT22;3747;48.628;9.058;2022-07-21T03:42:21;16.80;99.90
7411;DHT22;3747;48.628;9.058;2022-07-21T03:44:48;16.80;99.90
7411;DHT22;3747;48.628;9.058;2022-07-21T03:47:15;16.80;99.90
7411;DHT22;3747;48.628;9.058;2022-07-21T03:49:42;16.80;99.90
7411;DHT22;3747;48.628;9.058;2022-07-21T03:52:08;16.80;99.90
7411;DHT22;3747;48.628;9.058;2022-07-21T03:54:37;16.80;99.90
7411;DHT22;3747;48.628;9.058;2022-07-21T03:57:03;16.70;99.90
7411;DHT22;3747;48.628;9.058;2022-07-21T03:59:30;16.60;99.90
7411;DHT22;3747;48.628;9.058;2022-07-21T04:01:57;16.70;99.90
7411;DHT22;3747;48.628;9.058;2022-07-21T04:04:23;16.70;99.90
7411;DHT22;3747;48.628;9.058;2022-07-21T04:06:50;16.70;99.90
7411;DHT22;3747;48.628;9.058;2022-07-21T04:09:17;16.60;99.90
7411;DHT22;3747;48.628;9.058;2022-07-21T04:11:45;16.60;99.90
7411;DHT22;3747;48.628;9.058;2022-07-21T04:14:11;16.60;99.90
7411;DHT22;3747;48.628;9.058;2022-07-21T04:16:38;16.60;99.90
7411;DHT22;3747;48.628;9.058;2022-07-21T04:19:05;16.60;99.90
7411;DHT22;3747;48.628;9.058;2022-07-21T04:21:32;16.50;99.90
7411;DHT22;3747;48.628;9.058;2022-07-21T04:23:58;16.50;99.90
7411;DHT22;3747;48.628;9.058;2022-07-21T04:26:25;16.50;99.90
7411;DHT22;3747;48.628;9.058;2022-07-21T04:28:54;16.50;99.90
7411;DHT22;3747;48.628;9.058;2022-07-21T04:31:21;16.60;99.90
7411;DHT22;3747;48.628;9.058;2022-07-21T04:33:47;16.60;99.90
7411;DHT22;3747;48.628;9.058;2022-07-21T04:36:14;16.70;99.90
7411;DHT22;3747;48.628;9.058;2022-07-21T04:38:41;16.70;99.90
7411;DHT22;3747;48.628;9.058;2022-07-21T04:41:07;16.70;99.90
7411;DHT22;3747;48.628;9.058;2022-07-21T04:43:34;16.70;99.90
7411;DHT22;3747;48.628;9.058;2022-07-21T04:46:02;16.70;99.90
7411;DHT22;3747;48.628;9.058;2022-07-21T04:48:29;16.80;99.90
7411;DHT22;3747;48.628;9.058;2022-07-21T04:50:55;16.80;99.90
7411;DHT22;3747;48.628;9.058;2022-07-21T04:53:22;16.90;99.90
7411;DHT22;3747;48.628;9.058;2022-07-21T04:55:49;17.00;99.90
7411;DHT22;3747;48.628;9.058;2022-07-21T04:58:16;17.10;99.90
7411;DHT22;3747;48.628;9.058;2022-07-21T05:00:43;17.10;99.90
7411;DHT22;3747;48.628;9.058;2022-07-21T05:03:11;17.20;99.90
7411;DHT22;3747;48.628;9.058;2022-07-21T05:05:39;17.30;99.90
7411;DHT22;3747;48.628;9.058;2022-07-21T05:08:05;17.30;99.90
7411;DHT22;3747;48.628;9.058;2022-07-21T05:10:32;17.40;99.90
7411;DHT22;3747;48.628;9.058;2022-07-21T05:12:59;17.50;99.90
7411;DHT22;3747;48.628;9.058;2022-07-21T05:15:25;17.60;99.90
7411;DHT22;3747;48.628;9.058;2022-07-21T05:17:52;17.60;99.90
7411;DHT22;3747;48.628;9.058;2022-07-21T05:20:20;17.70;99.90
7411;DHT22;3747;48.628;9.058;2022-07-21T05:22:47;17.80;99.90
7411;DHT22;3747;48.628;9.058;2022-07-21T05:25:14;17.90;99.90
7411;DHT22;3747;48.628;9.058;2022-07-21T05:27:40;18.00;99.90
7411;DHT22;3747;48.628;9.058;2022-07-21T05:30:08;18.20;99.90
7411;DHT22;3747;48.628;9.058;2022-07-21T05:32:35;18.20;99.90
7411;DHT22;3747;48.628;9.058;2022-07-21T05:35:03;18.40;99.90
7411;DHT22;3747;48.628;9.058;2022-07-21T05:37:35;18.50;99.90
7411;DHT22;3747;48.628;9.058;2022-07-21T05:40:02;18.60;99.90
7411;DHT22;3747;48.628;9.058;2022-07-21T05:42:29;18.70;99.90
7411;DHT22;3747;48.628;9.058;2022-07-21T05:44:55;18.90;99.90
7411;DHT22;3747;48.628;9.058;2022-07-21T05:47:22;19.00;99.90
7411;DHT22;3747;48.628;9.058;2022-07-21T05:49:49;19.10;99.90
7411;DHT22;3747;48.628;9.058;2022-07-21T05:52:15;19.20;99.90
7411;DHT22;3747;48.628;9.058;2022-07-21T05:54:43;19.30;99.90
7411;DHT22;3747;48.628;9.058;2022-07-21T05:57:10;19.40;99.90
7411;DHT22;3747;48.628;9.058;2022-07-21T05:59:37;19.70;99.90
7411;DHT22;3747;48.628;9.058;2022-07-21T06:02:03;19.80;99.90
7411;DHT22;3747;48.628;9.058;2022-07-21T06:04:30;19.80;99.90
7411;DHT22;3747;48.628;9.058;2022-07-21T06:06:57;20.00;99.90
7411;DHT22;3747;48.628;9.058;2022-07-21T06:09:23;20.20;99.90
7411;DHT22;3747;48.628;9.058;2022-07-21T06:11:52;20.30;99.90
7411;DHT22;3747;48.628;9.058;2022-07-21T06:14:18;20.40;99.90
7411;DHT22;3747;48.628;9.058;2022-07-21T06:16:45;20.60;99.90
7411;DHT22;3747;48.628;9.058;2022-07-21T06:19:12;20.80;99.90
7411;DHT22;3747;48.628;9.058;2022-07-21T06:21:39;21.00;99.90
7411;DHT22;3747;48.628;9.058;2022-07-21T06:24:07;20.70;99.90
7411;DHT22;3747;48.628;9.058;2022-07-21T06:26:33;20.80;99.90
7411;DHT22;3747;48.628;9.058;2022-07-21T06:29:02;20.70;99.90
7411;DHT22;3747;48.628;9.058;2022-07-21T06:31:29;20.60;99.90
7411;DHT22;3747;48.628;9.058;2022-07-21T06:33:55;20.80;99.90
7411;DHT22;3747;48.628;9.058;2022-07-21T06:36:22;21.00;99.90
7411;DHT22;3747;48.628;9.058;2022-07-21T06:38:49;21.30;99.90
7411;DHT22;3747;48.628;9.058;2022-07-21T06:41:15;21.70;99.90
7411;DHT22;3747;48.628;9.058;2022-07-21T06:43:42;21.80;99.90
7411;DHT22;3747;48.628;9.058;2022-07-21T06:46:10;22.20;99.90
7411;DHT22;3747;48.628;9.058;2022-07-21T06:48:37;22.20;99.90
7411;DHT22;3747;48.628;9.058;2022-07-21T06:51:04;22.40;99.90
7411;DHT22;3747;48.628;9.058;2022-07-21T06:53:31;22.70;99.90
7411;DHT22;3747;48.628;9.058;2022-07-21T06:55:57;23.00;99.90
7411;DHT22;3747;48.628;9.058;2022-07-21T06:58:24;22.70;99.90
7411;DHT22;3747;48.628;9.058;2022-07-21T07:00:52;22.00;99.90
7411;DHT22;3747;48.628;9.058;2022-07-21T07:03:21;21.90;99.90
7411;DHT22;3747;48.628;9.058;2022-07-21T07:05:48;22.20;99.90
7411;DHT22;3747;48.628;9.058;2022-07-21T07:08:15;22.30;99.90
7411;DHT22;3747;48.628;9.058;2022-07-21T07:10:42;22.40;99.90
7411;DHT22;3747;48.628;9.058;2022-07-21T07:13:10;22.80;99.90
7411;DHT22;3747;48.628;9.058;2022-07-21T07:15:36;22.20;99.90
7411;DHT22;3747;48.628;9.058;2022-07-21T07:18:03;22.60;99.90
7411;DHT22;3747;48.628;9.058;2022-07-21T07:20:32;23.00;99.90
7411;DHT22;3747;48.628;9.058;2022-07-21T07:22:59;23.30;99.90
7411;DHT22;3747;48.628;9.058;2022-07-21T07:25:25;23.30;99.90
7411;DHT22;3747;48.628;9.058;2022-07-21T07:27:52;23.90;99.90
7411;DHT22;3747;48.628;9.058;2022-07-21T07:30:19;23.90;99.90
7411;DHT22;3747;48.628;9.058;2022-07-21T07:32:46;23.30;99.90
7411;DHT22;3747;48.628;9.058;2022-07-21T07:35:14;23.60;99.90
7411;DHT22;3747;48.628;9.058;2022-07-21T07:37:45;24.10;99.90
7411;DHT22;3747;48.628;9.058;2022-07-21T07:40:14;23.70;99.90
7411;DHT22;3747;48.628;9.058;2022-07-21T07:42:41;24.20;99.90
7411;DHT22;3747;48.628;9.058;2022-07-21T07:45:09;24.50;99.90
7411;DHT22;3747;48.628;9.058;2022-07-21T07:47:37;24.60;99.90
7411;DHT22;3747;48.628;9.058;2022-07-21T07:50:05;24.60;99.90
7411;DHT22;3747;48.628;9.058;2022-07-21T07:52:33;24.10;99.90
7411;DHT22;3747;48.628;9.058;2022-07-21T07:55:01;24.30;99.90
7411;DHT22;3747;48.628;9.058;2022-07-21T07:57:32;24.60;99.90
7411;DHT22;3747;48.628;9.058;2022-07-21T07:59:59;25.10;99.90
7411;DHT22;3747;48.628;9.058;2022-07-21T08:02:26;25.10;99.90
7411;DHT22;3747;48.628;9.058;2022-07-21T08:04:52;24.90;99.90
7411;DHT22;3747;48.628;9.058;2022-07-21T08:07:19;25.80;99.90
7411;DHT22;3747;48.628;9.058;2022-07-21T08:09:46;25.90;99.90
7411;DHT22;3747;48.628;9.058;2022-07-21T08:12:14;25.80;99.90
7411;DHT22;3747;48.628;9.058;2022-07-21T08:14:40;25.90;99.90
7411;DHT22;3747;48.628;9.058;2022-07-21T08:17:07;25.10;99.90
7411;DHT22;3747;48.628;9.058;2022-07-21T08:19:34;24.40;99.90
7411;DHT22;3747;48.628;9.058;2022-07-21T08:22:00;24.80;99.90
7411;DHT22;3747;48.628;9.058;2022-07-21T08:24:27;25.10;99.90
7411;DHT22;3747;48.628;9.058;2022-07-21T08:26:54;25.10;99.90
7411;DHT22;3747;48.628;9.058;2022-07-21T08:29:22;25.30;99.90
7411;DHT22;3747;48.628;9.058;2022-07-21T08:31:49;25.10;99.90
7411;DHT22;3747;48.628;9.058;2022-07-21T08:34:15;24.20;99.90
7411;DHT22;3747;48.628;9.058;2022-07-21T08:36:42;23.80;99.90
7411;DHT22;3747;48.628;9.058;2022-07-21T08:39:09;24.10;99.90
7411;DHT22;3747;48.628;9.058;2022-07-21T08:41:36;24.00;99.90
7411;DHT22;3747;48.628;9.058;2022-07-21T08:44:03;24.70;99.90
7411;DHT22;3747;48.628;9.058;2022-07-21T08:46:33;24.80;99.90
7411;DHT22;3747;48.628;9.058;2022-07-21T08:49:02;25.10;99.90
7411;DHT22;3747;48.628;9.058;2022-07-21T08:51:32;25.50;99.90
7411;DHT22;3747;48.628;9.058;2022-07-21T08:53:59;25.90;99.90
7411;DHT22;3747;48.628;9.058;2022-07-21T08:56:26;25.70;99.90
7411;DHT22;3747;48.628;9.058;2022-07-21T08:58:53;25.20;99.90
7411;DHT22;3747;48.628;9.058;2022-07-21T09:01:19;25.60;99.90
7411;DHT22;3747;48.628;9.058;2022-07-21T09:03:51;25.90;99.90
7411;DHT22;3747;48.628;9.058;2022-07-21T09:06:18;26.50;99.90
7411;DHT22;3747;48.628;9.058;2022-07-21T09:08:46;26.10;99.90
7411;DHT22;3747;48.628;9.058;2022-07-21T09:11:17;26.60;99.90
7411;DHT22;3747;48.628;9.058;2022-07-21T09:13:45;26.90;99.90
7411;DHT22;3747;48.628;9.058;2022-07-21T09:16:13;26.80;99.90
7411;DHT22;3747;48.628;9.058;2022-07-21T09:18:50;26.70;99.90
7411;DHT22;3747;48.628;9.058;2022-07-21T09:21:19;26.80;99.90
7411;DHT22;3747;48.628;9.058;2022-07-21T09:23:46;27.30;99.90
7411;DHT22;3747;48.628;9.058;2022-07-21T09:26:13;27.90;99.90
7411;DHT22;3747;48.628;9.058;2022-07-21T09:28:40;28.00;99.90
7411;DHT22;3747;48.628;9.058;2022-07-21T09:31:09;28.30;99.90
7411;DHT22;3747;48.628;9.058;2022-07-21T09:33:38;28.40;99.90
7411;DHT22;3747;48.628;9.058;2022-07-21T09:36:06;28.70;99.90
7411;DHT22;3747;48.628;9.058;2022-07-21T09:38:37;28.50;99.90
7411;DHT22;3747;48.628;9.058;2022-07-21T09:41:06;27.20;99.90
7411;DHT22;3747;48.628;9.058;2022-07-21T09:43:37;26.60;99.90
7411;DHT22;3747;48.628;9.058;2022-07-21T09:46:09;26.20;99.90
7411;DHT22;3747;48.628;9.058;2022-07-21T09:48:38;26.30;99.90
7411;DHT22;3747;48.628;9.058;2022-07-21T09:51:29;26.10;99.90
7411;DHT22;3747;48.628;9.058;2022-07-21T09:53:59;25.10;99.90
7411;DHT22;3747;48.628;9.058;2022-07-21T09:56:28;24.50;99.90
7411;DHT22;3747;48.628;9.058;2022-07-21T09:58:56;24.50;99.90
7411;DHT22;3747;48.628;9.058;2022-07-21T10:01:24;25.20;99.90
7411;DHT22;3747;48.628;9.058;2022-07-21T10:03:52;25.80;99.90
7411;DHT22;3747;48.628;9.058;2022-07-21T10:06:20;26.60;99.90
7411;DHT22;3747;48.628;9.058;2022-07-21T10:08:49;27.60;99.90
7411;DHT22;3747;48.628;9.058;2022-07-21T10:11:17;28.40;99.90
7411;DHT22;3747;48.628;9.058;2022-07-21T10:13:44;28.60;99.90
7411;DHT22;3747;48.628;9.058;2022-07-21T10:16:12;28.30;99.90
7411;DHT22;3747;48.628;9.058;2022-07-21T10:18:46;28.20;99.90
7411;DHT22;3747;48.628;9.058;2022-07-21T10:21:26;28.00;99.90
7411;DHT22;3747;48.628;9.058;2022-07-21T10:23:55;28.10;99.90
7411;DHT22;3747;48.628;9.058;2022-07-21T10:26:24;28.60;99.90
7411;DHT22;3747;48.628;9.058;2022-07-21T10:28:50;28.60;99.90
7411;DHT22;3747;48.628;9.058;2022-07-21T10:31:19;28.20;99.90
7411;DHT22;3747;48.628;9.058;2022-07-21T10:33:54;28.30;99.90
7411;DHT22;3747;48.628;9.058;2022-07-21T10:36:40;28.00;99.90
7411;DHT22;3747;48.628;9.058;2022-07-21T10:39:20;27.40;99.90
7411;DHT22;3747;48.628;9.058;2022-07-21T10:41:51;27.80;99.90
7411;DHT22;3747;48.628;9.058;2022-07-21T10:44:44;28.00;99.90
7411;DHT22;3747;48.628;9.058;2022-07-21T10:47:12;27.60;99.90
7411;DHT22;3747;48.628;9.058;2022-07-21T10:49:52;27.70;99.90
7411;DHT22;3747;48.628;9.058;2022-07-21T10:55:35;29.00;99.90
7411;DHT22;3747;48.628;9.058;2022-07-21T10:58:14;29.20;99.90
7411;DHT22;3747;48.628;9.058;2022-07-21T11:00:46;30.00;99.90
7411;DHT22;3747;48.628;9.058;2022-07-21T11:03:15;30.20;99.90
7411;DHT22;3747;48.628;9.058;2022-07-21T11:06:12;29.90;99.90
7411;DHT22;3747;48.628;9.058;2022-07-21T11:08:40;30.00;99.90
7411;DHT22;3747;48.628;9.058;2022-07-21T11:11:09;30.20;99.90
7411;DHT22;3747;48.628;9.058;2022-07-21T11:14:00;30.30;99.90
7411;DHT22;3747;48.628;9.058;2022-07-21T11:19:37;29.90;99.90
7411;DHT22;3747;48.628;9.058;2022-07-21T11:22:10;30.00;99.90
7411;DHT22;3747;48.628;9.058;2022-07-21T11:24:38;30.30;99.90
7411;DHT22;3747;48.628;9.058;2022-07-21T11:27:07;30.80;99.90
7411;DHT22;3747;48.628;9.058;2022-07-21T11:29:39;31.50;99.30
7411;DHT22;3747;48.628;9.058;2022-07-21T11:32:07;31.40;99.00
7411;DHT22;3747;48.628;9.058;2022-07-21T11:34:43;30.70;98.60
7411;DHT22;3747;48.628;9.058;2022-07-21T11:37:12;30.10;99.90
7411;DHT22;3747;48.628;9.058;2022-07-21T11:39:39;28.90;99.20
7411;DHT22;3747;48.628;9.058;2022-07-21T11:42:08;27.70;99.90
7411;DHT22;3747;48.628;9.058;2022-07-21T11:44:36;27.30;99.90
7411;DHT22;3747;48.628;9.058;2022-07-21T11:47:04;26.90;99.90
7411;DHT22;3747;48.628;9.058;2022-07-21T11:49:32;27.80;99.90
7411;DHT22;3747;48.628;9.058;2022-07-21T11:52:00;28.50;98.80
7411;DHT22;3747;48.628;9.058;2022-07-21T11:54:33;28.40;99.00
7411;DHT22;3747;48.628;9.058;2022-07-21T11:57:02;28.10;98.60
7411;DHT22;3747;48.628;9.058;2022-07-21T11:59:30;27.50;99.10
7411;DHT22;3747;48.628;9.058;2022-07-21T12:02:00;28.20;99.80
7411;DHT22;3747;48.628;9.058;2022-07-21T12:04:29;28.40;98.40
7411;DHT22;3747;48.628;9.058;2022-07-21T12:06:57;28.60;96.60
7411;DHT22;3747;48.628;9.058;2022-07-21T12:09:25;28.30;97.50
7411;DHT22;3747;48.628;9.058;2022-07-21T12:11:52;27.70;98.10
7411;DHT22;3747;48.628;9.058;2022-07-21T12:14:18;27.10;99.90
7411;DHT22;3747;48.628;9.058;2022-07-21T12:16:49;27.00;98.30
7411;DHT22;3747;48.628;9.058;2022-07-21T12:19:19;26.90;98.90
7411;DHT22;3747;48.628;9.058;2022-07-21T12:21:47;27.10;99.60
7411;DHT22;3747;48.628;9.058;2022-07-21T12:24:16;27.10;99.50
7411;DHT22;3747;48.628;9.058;2022-07-21T12:26:42;26.90;99.90
7411;DHT22;3747;48.628;9.058;2022-07-21T12:29:10;27.00;99.80
7411;DHT22;3747;48.628;9.058;2022-07-21T12:31:37;28.40;99.90
7411;DHT22;3747;48.628;9.058;2022-07-21T12:34:14;30.10;96.80
7411;DHT22;3747;48.628;9.058;2022-07-21T12:36:45;30.60;95.20
7411;DHT22;3747;48.628;9.058;2022-07-21T12:39:14;31.40;96.00
7411;DHT22;3747;48.628;9.058;2022-07-21T12:42:01;31.90;95.10
7411;DHT22;3747;48.628;9.058;2022-07-21T12:44:29;31.10;93.20
7411;DHT22;3747;48.628;9.058;2022-07-21T12:46:56;31.20;93.90
7411;DHT22;3747;48.628;9.058;2022-07-21T12:49:22;31.60;94.30
7411;DHT22;3747;48.628;9.058;2022-07-21T12:51:56;31.60;91.20
7411;DHT22;3747;48.628;9.058;2022-07-21T12:54:23;31.90;91.80
7411;DHT22;3747;48.628;9.058;2022-07-21T12:56:50;31.90;90.70
7411;DHT22;3747;48.628;9.058;2022-07-21T12:59:18;30.00;92.20
7411;DHT22;3747;48.628;9.058;2022-07-21T13:01:45;29.00;91.40
7411;DHT22;3747;48.628;9.058;2022-07-21T13:04:12;28.80;93.20
7411;DHT22;3747;48.628;9.058;2022-07-21T13:06:38;29.50;94.60
7411;DHT22;3747;48.628;9.058;2022-07-21T13:09:06;30.30;94.00
7411;DHT22;3747;48.628;9.058;2022-07-21T13:11:33;29.10;92.80
7411;DHT22;3747;48.628;9.058;2022-07-21T13:14:00;28.50;93.70
7411;DHT22;3747;48.628;9.058;2022-07-21T13:16:29;28.80;92.10
7411;DHT22;3747;48.628;9.058;2022-07-21T13:18:56;29.80;93.40
7411;DHT22;3747;48.628;9.058;2022-07-21T13:21:22;29.70;93.80
7411;DHT22;3747;48.628;9.058;2022-07-21T13:23:49;29.40;92.30
7411;DHT22;3747;48.628;9.058;2022-07-21T13:26:17;29.40;92.20
7411;DHT22;3747;48.628;9.058;2022-07-21T13:28:44;29.90;93.80
7411;DHT22;3747;48.628;9.058;2022-07-21T13:31:11;30.80;91.50
7411;DHT22;3747;48.628;9.058;2022-07-21T13:33:38;30.90;91.70
7411;DHT22;3747;48.628;9.058;2022-07-21T13:36:06;31.00;95.20
7411;DHT22;3747;48.628;9.058;2022-07-21T13:38:33;31.70;92.00
7411;DHT22;3747;48.628;9.058;2022-07-21T13:41:00;32.70;91.10
7411;DHT22;3747;48.628;9.058;2022-07-21T13:43:28;32.70;90.30
7411;DHT22;3747;48.628;9.058;2022-07-21T13:45:55;33.20;90.10
7411;DHT22;3747;48.628;9.058;2022-07-21T13:48:22;32.70;88.50
7411;DHT22;3747;48.628;9.058;2022-07-21T13:50:49;31.50;92.80
7411;DHT22;3747;48.628;9.058;2022-07-21T13:53:15;30.70;94.30
7411;DHT22;3747;48.628;9.058;2022-07-21T13:55:42;29.30;95.20
7411;DHT22;3747;48.628;9.058;2022-07-21T13:58:09;29.10;95.20
7411;DHT22;3747;48.628;9.058;2022-07-21T14:00:37;29.20;94.80
7411;DHT22;3747;48.628;9.058;2022-07-21T14:03:04;30.20;95.60
7411;DHT22;3747;48.628;9.058;2022-07-21T14:05:31;30.30;95.40
7411;DHT22;3747;48.628;9.058;2022-07-21T14:07:57;30.20;95.50
7411;DHT22;3747;48.628;9.058;2022-07-21T14:10:24;30.40;93.40
7411;DHT22;3747;48.628;9.058;2022-07-21T14:12:51;30.60;94.00
7411;DHT22;3747;48.628;9.058;2022-07-21T14:15:17;30.70;92.80
7411;DHT22;3747;48.628;9.058;2022-07-21T14:17:45;30.20;93.00
7411;DHT22;3747;48.628;9.058;2022-07-21T14:20:12;29.50;93.80
7411;DHT22;3747;48.628;9.058;2022-07-21T14:22:39;28.70;93.90
7411;DHT22;3747;48.628;9.058;2022-07-21T14:25:07;28.60;95.80
7411;DHT22;3747;48.628;9.058;2022-07-21T14:27:46;29.80;95.60
7411;DHT22;3747;48.628;9.058;2022-07-21T14:30:14;30.50;95.10
7411;DHT22;3747;48.628;9.058;2022-07-21T14:32:41;30.50;93.00
7411;DHT22;3747;48.628;9.058;2022-07-21T14:35:09;30.30;95.60
7411;DHT22;3747;48.628;9.058;2022-07-21T14:37:37;30.00;93.90
7411;DHT22;3747;48.628;9.058;2022-07-21T14:40:05;29.60;94.70
7411;DHT22;3747;48.628;9.058;2022-07-21T14:42:33;29.10;95.90
7411;DHT22;3747;48.628;9.058;2022-07-21T14:45:00;29.70;94.40
7411;DHT22;3747;48.628;9.058;2022-07-21T14:47:27;31.00;92.60
7411;DHT22;3747;48.628;9.058;2022-07-21T14:49:55;32.80;90.10
7411;DHT22;3747;48.628;9.058;2022-07-21T14:52:23;32.80;88.80
7411;DHT22;3747;48.628;9.058;2022-07-21T14:54:50;32.30;87.40
7411;DHT22;3747;48.628;9.058;2022-07-21T14:57:17;30.80;91.90
7411;DHT22;3747;48.628;9.058;2022-07-21T14:59:43;29.70;92.40
7411;DHT22;3747;48.628;9.058;2022-07-21T15:02:10;28.60;94.60
7411;DHT22;3747;48.628;9.058;2022-07-21T15:04:37;28.20;93.90
7411;DHT22;3747;48.628;9.058;2022-07-21T15:07:04;27.60;95.70
7411;DHT22;3747;48.628;9.058;2022-07-21T15:09:32;27.30;95.80
7411;DHT22;3747;48.628;9.058;2022-07-21T15:11:59;27.10;97.50
7411;DHT22;3747;48.628;9.058;2022-07-21T15:14:25;27.30;97.30
7411;DHT22;3747;48.628;9.058;2022-07-21T15:16:52;27.90;96.40
7411;DHT22;3747;48.628;9.058;2022-07-21T15:19:19;27.70;95.60
7411;DHT22;3747;48.628;9.058;2022-07-21T15:21:46;27.60;95.90
7411;DHT22;3747;48.628;9.058;2022-07-21T15:24:13;27.50;95.90
7411;DHT22;3747;48.628;9.058;2022-07-21T15:26:42;27.10;96.90
7411;DHT22;3747;48.628;9.058;2022-07-21T15:29:08;27.40;96.90
7411;DHT22;3747;48.628;9.058;2022-07-21T15:31:35;27.60;96.00
7411;DHT22;3747;48.628;9.058;2022-07-21T15:34:02;27.60;96.70
7411;DHT22;3747;48.628;9.058;2022-07-21T15:36:29;27.70;95.50
7411;DHT22;3747;48.628;9.058;2022-07-21T15:38:56;27.30;96.70
7411;DHT22;3747;48.628;9.058;2022-07-21T15:41:23;27.10;96.40
7411;DHT22;3747;48.628;9.058;2022-07-21T15:43:51;27.20;96.30
7411;DHT22;3747;48.628;9.058;2022-07-21T15:46:18;27.50;97.00
7411;DHT22;3747;48.628;9.058;2022-07-21T15:48:44;27.80;97.40
7411;DHT22;3747;48.628;9.058;2022-07-21T15:51:11;29.00;94.70
7411;DHT22;3747;48.628;9.058;2022-07-21T15:53:38;30.10;95.30
7411;DHT22;3747;48.628;9.058;2022-07-21T15:56:05;31.70;92.50
7411;DHT22;3747;48.628;9.058;2022-07-21T15:58:32;32.80;92.70
7411;DHT22;3747;48.628;9.058;2022-07-21T16:01:00;33.70;91.20
7411;DHT22;3747;48.628;9.058;2022-07-21T16:03:27;33.60;89.10
7411;DHT22;3747;48.628;9.058;2022-07-21T16:05:54;32.10;90.70
7411;DHT22;3747;48.628;9.058;2022-07-21T16:08:20;31.10;90.10
7411;DHT22;3747;48.628;9.058;2022-07-21T16:10:47;30.70;91.40
7411;DHT22;3747;48.628;9.058;2022-07-21T16:13:14;29.80;91.60